sensor_id;sensor_type;location;lat;lon;timestamp;P1;durP1;ratioP1;P2;durP2;ratioP2
31238;SDS011;17871;31.584;74.450;2024-02-21T00:01:17;131.95;;;57.90;;
31238;SDS011;17871;31.584;74.450;2024-02-21T00:03:49;121.97;;;57.13;;
31238;SDS011;17871;31.584;74.450;2024-02-21T00:06:18;127.35;;;56.60;;
31238;SDS011;17871;31.584;74.450;2024-02-21T00:08:48;126.68;;;54.95;;
31238;SDS011;17871;31.584;74.450;2024-02-21T00:11:17;123.05;;;55.25;;
31238;SDS011;17871;31.584;74.450;2024-02-21T00:13:46;115.38;;;54.13;;
31238;SDS011;17871;31.584;74.450;2024-02-21T00:16:15;124.75;;;52.90;;
31238;SDS011;17871;31.584;74.450;2024-02-21T00:18:45;99.28;;;50.53;;
31238;SDS011;17871;31.584;74.450;2024-02-21T00:21:14;111.20;;;51.50;;
31238;SDS011;17871;31.584;74.450;2024-02-21T00:23:46;110.57;;;53.40;;
31238;SDS011;17871;31.584;74.450;2024-02-21T00:26:15;115.78;;;50.78;;
31238;SDS011;17871;31.584;74.450;2024-02-21T00:28:44;108.82;;;53.80;;
31238;SDS011;17871;31.584;74.450;2024-02-21T00:31:13;111.32;;;52.65;;
31238;SDS011;17871;31.584;74.450;2024-02-21T00:33:42;107.35;;;50.47;;
31238;SDS011;17871;31.584;74.450;2024-02-21T00:36:11;107.68;;;53.58;;
31238;SDS011;17871;31.584;74.450;2024-02-21T00:38:40;108.70;;;53.10;;
31238;SDS011;17871;31.584;74.450;2024-02-21T00:41:09;126.88;;;54.78;;
31238;SDS011;17871;31.584;74.450;2024-02-21T00:43:38;110.13;;;52.17;;
31238;SDS011;17871;31.584;74.450;2024-02-21T00:46:07;112.50;;;51.92;;
31238;SDS011;17871;31.584;74.450;2024-02-21T00:48:37;118.45;;;52.92;;
31238;SDS011;17871;31.584;74.450;2024-02-21T00:51:06;118.25;;;56.78;;
31238;SDS011;17871;31.584;74.450;2024-02-21T00:53:35;120.45;;;57.78;;
31238;SDS011;17871;31.584;74.450;2024-02-21T00:56:06;129.93;;;57.58;;
31238;SDS011;17871;31.584;74.450;2024-02-21T00:58:36;139.65;;;57.40;;
31238;SDS011;17871;31.584;74.450;2024-02-21T01:01:05;126.63;;;55.78;;
31238;SDS011;17871;31.584;74.450;2024-02-21T01:03:34;134.55;;;53.72;;
31238;SDS011;17871;31.584;74.450;2024-02-21T01:06:03;132.10;;;57.85;;
31238;SDS011;17871;31.584;74.450;2024-02-21T01:08:32;119.47;;;55.47;;
31238;SDS011;17871;31.584;74.450;2024-02-21T01:11:01;125.70;;;56.88;;
31238;SDS011;17871;31.584;74.450;2024-02-21T01:13:30;121.60;;;55.78;;
31238;SDS011;17871;31.584;74.450;2024-02-21T01:15:59;125.65;;;58.25;;
31238;SDS011;17871;31.584;74.450;2024-02-21T01:18:27;148.88;;;60.15;;
31238;SDS011;17871;31.584;74.450;2024-02-21T01:20:57;148.65;;;63.97;;
31238;SDS011;17871;31.584;74.450;2024-02-21T01:23:26;138.13;;;64.13;;
31238;SDS011;17871;31.584;74.450;2024-02-21T01:25:55;146.40;;;62.50;;
31238;SDS011;17871;31.584;74.450;2024-02-21T01:28:24;133.65;;;61.10;;
31238;SDS011;17871;31.584;74.450;2024-02-21T01:30:53;182.52;;;81.57;;
31238;SDS011;17871;31.584;74.450;2024-02-21T01:33:22;184.35;;;85.00;;
31238;SDS011;17871;31.584;74.450;2024-02-21T01:35:51;401.50;;;175.27;;
31238;SDS011;17871;31.584;74.450;2024-02-21T01:38:20;400.88;;;175.90;;
31238;SDS011;17871;31.584;74.450;2024-02-21T01:40:49;382.85;;;175.10;;
31238;SDS011;17871;31.584;74.450;2024-02-21T01:43:19;353.00;;;159.95;;
31238;SDS011;17871;31.584;74.450;2024-02-21T01:45:49;320.52;;;145.32;;
31238;SDS011;17871;31.584;74.450;2024-02-21T01:48:19;296.48;;;136.27;;
31238;SDS011;17871;31.584;74.450;2024-02-21T01:50:52;443.52;;;239.32;;
31238;SDS011;17871;31.584;74.450;2024-02-21T01:53:22;612.72;;;350.25;;
31238;SDS011;17871;31.584;74.450;2024-02-21T01:55:52;497.75;;;246.55;;
31238;SDS011;17871;31.584;74.450;2024-02-21T01:58:21;815.90;;;345.60;;
31238;SDS011;17871;31.584;74.450;2024-02-21T02:00:50;802.97;;;365.50;;
31238;SDS011;17871;31.584;74.450;2024-02-21T02:03:19;896.42;;;372.80;;
31238;SDS011;17871;31.584;74.450;2024-02-21T02:05:49;835.25;;;370.10;;
31238;SDS011;17871;31.584;74.450;2024-02-21T02:08:19;830.13;;;353.02;;
31238;SDS011;17871;31.584;74.450;2024-02-21T02:10:51;813.50;;;359.27;;
31238;SDS011;17871;31.584;74.450;2024-02-21T02:13:20;861.78;;;381.00;;
31238;SDS011;17871;31.584;74.450;2024-02-21T02:15:49;852.78;;;384.77;;
31238;SDS011;17871;31.584;74.450;2024-02-21T02:18:19;947.08;;;377.83;;
31238;SDS011;17871;31.584;74.450;2024-02-21T02:20:49;903.22;;;401.02;;
31238;SDS011;17871;31.584;74.450;2024-02-21T02:23:23;933.40;;;421.17;;
31238;SDS011;17871;31.584;74.450;2024-02-21T02:25:52;991.45;;;410.77;;
31238;SDS011;17871;31.584;74.450;2024-02-21T02:28:22;911.78;;;416.20;;
31238;SDS011;17871;31.584;74.450;2024-02-21T02:31:07;955.97;;;415.15;;
31238;SDS011;17871;31.584;74.450;2024-02-21T02:33:53;900.97;;;397.80;;
31238;SDS011;17871;31.584;74.450;2024-02-21T02:36:22;898.83;;;408.88;;
31238;SDS011;17871;31.584;74.450;2024-02-21T02:38:51;926.80;;;426.60;;
31238;SDS011;17871;31.584;74.450;2024-02-21T02:41:20;934.63;;;436.00;;
31238;SDS011;17871;31.584;74.450;2024-02-21T02:43:49;856.67;;;398.23;;
31238;SDS011;17871;31.584;74.450;2024-02-21T02:46:18;796.70;;;384.85;;
31238;SDS011;17871;31.584;74.450;2024-02-21T02:48:47;737.95;;;354.63;;
31238;SDS011;17871;31.584;74.450;2024-02-21T02:51:16;735.50;;;347.42;;
31238;SDS011;17871;31.584;74.450;2024-02-21T02:53:46;653.47;;;326.15;;
31238;SDS011;17871;31.584;74.450;2024-02-21T02:56:15;634.20;;;324.48;;
31238;SDS011;17871;31.584;74.450;2024-02-21T02:58:44;619.70;;;304.45;;
31238;SDS011;17871;31.584;74.450;2024-02-21T03:01:13;538.90;;;277.95;;
31238;SDS011;17871;31.584;74.450;2024-02-21T03:03:43;526.78;;;268.98;;
31238;SDS011;17871;31.584;74.450;2024-02-21T03:06:15;509.83;;;250.15;;
31238;SDS011;17871;31.584;74.450;2024-02-21T03:08:43;455.52;;;213.20;;
31238;SDS011;17871;31.584;74.450;2024-02-21T03:11:12;418.83;;;191.95;;
31238;SDS011;17871;31.584;74.450;2024-02-21T03:13:42;361.45;;;155.18;;
31238;SDS011;17871;31.584;74.450;2024-02-21T03:16:11;303.63;;;142.95;;
31238;SDS011;17871;31.584;74.450;2024-02-21T03:18:40;313.20;;;140.60;;
31238;SDS011;17871;31.584;74.450;2024-02-21T03:21:11;329.35;;;140.98;;
31238;SDS011;17871;31.584;74.450;2024-02-21T03:23:39;317.38;;;130.93;;
31238;SDS011;17871;31.584;74.450;2024-02-21T03:26:08;287.70;;;120.28;;
31238;SDS011;17871;31.584;74.450;2024-02-21T03:28:37;246.18;;;110.82;;
31238;SDS011;17871;31.584;74.450;2024-02-21T03:31:08;246.70;;;102.97;;
31238;SDS011;17871;31.584;74.450;2024-02-21T03:33:37;230.75;;;101.10;;
31238;SDS011;17871;31.584;74.450;2024-02-21T03:36:06;238.88;;;101.95;;
31238;SDS011;17871;31.584;74.450;2024-02-21T03:38:35;211.57;;;91.03;;
31238;SDS011;17871;31.584;74.450;2024-02-21T03:41:04;229.38;;;89.30;;
31238;SDS011;17871;31.584;74.450;2024-02-21T03:43:33;193.90;;;86.47;;
31238;SDS011;17871;31.584;74.450;2024-02-21T03:46:02;171.65;;;80.05;;
31238;SDS011;17871;31.584;74.450;2024-02-21T03:48:31;178.02;;;74.80;;
31238;SDS011;17871;31.584;74.450;2024-02-21T03:51:00;145.55;;;66.32;;
31238;SDS011;17871;31.584;74.450;2024-02-21T03:53:29;162.70;;;68.53;;
31238;SDS011;17871;31.584;74.450;2024-02-21T03:56:00;168.75;;;71.15;;
31238;SDS011;17871;31.584;74.450;2024-02-21T03:58:32;165.98;;;72.75;;
31238;SDS011;17871;31.584;74.450;2024-02-21T04:01:01;163.80;;;73.75;;
31238;SDS011;17871;31.584;74.450;2024-02-21T04:03:30;168.70;;;74.15;;
31238;SDS011;17871;31.584;74.450;2024-02-21T04:05:59;154.77;;;69.63;;
31238;SDS011;17871;31.584;74.450;2024-02-21T04:08:28;173.63;;;75.97;;
31238;SDS011;17871;31.584;74.450;2024-02-21T04:10:57;198.88;;;82.70;;
31238;SDS011;17871;31.584;74.450;2024-02-21T04:13:27;212.88;;;89.85;;
31238;SDS011;17871;31.584;74.450;2024-02-21T04:15:56;205.73;;;85.50;;
31238;SDS011;17871;31.584;74.450;2024-02-21T04:18:25;196.50;;;86.95;;
31238;SDS011;17871;31.584;74.450;2024-02-21T04:20:54;199.48;;;87.25;;
31238;SDS011;17871;31.584;74.450;2024-02-21T04:23:23;195.75;;;88.18;;
31238;SDS011;17871;31.584;74.450;2024-02-21T04:25:52;237.98;;;102.72;;
31238;SDS011;17871;31.584;74.450;2024-02-21T04:28:21;242.95;;;103.22;;
31238;SDS011;17871;31.584;74.450;2024-02-21T04:30:50;224.65;;;104.47;;
31238;SDS011;17871;31.584;74.450;2024-02-21T04:33:19;206.27;;;92.90;;
31238;SDS011;17871;31.584;74.450;2024-02-21T04:35:48;177.57;;;88.55;;
31238;SDS011;17871;31.584;74.450;2024-02-21T04:38:17;164.73;;;80.47;;
31238;SDS011;17871;31.584;74.450;2024-02-21T04:40:46;175.68;;;83.60;;
31238;SDS011;17871;31.584;74.450;2024-02-21T04:43:15;170.38;;;80.35;;
31238;SDS011;17871;31.584;74.450;2024-02-21T04:45:44;175.10;;;81.75;;
31238;SDS011;17871;31.584;74.450;2024-02-21T04:48:13;167.57;;;79.95;;
31238;SDS011;17871;31.584;74.450;2024-02-21T04:50:42;154.55;;;71.80;;
31238;SDS011;17871;31.584;74.450;2024-02-21T04:53:11;141.90;;;67.47;;
31238;SDS011;17871;31.584;74.450;2024-02-21T04:55:40;134.95;;;65.18;;
31238;SDS011;17871;31.584;74.450;2024-02-21T04:58:09;157.68;;;75.53;;
31238;SDS011;17871;31.584;74.450;2024-02-21T05:00:38;153.35;;;74.78;;
31238;SDS011;17871;31.584;74.450;2024-02-21T05:03:07;162.07;;;70.22;;
31238;SDS011;17871;31.584;74.450;2024-02-21T05:05:36;142.77;;;71.57;;
31238;SDS011;17871;31.584;74.450;2024-02-21T05:08:06;145.95;;;67.22;;
31238;SDS011;17871;31.584;74.450;2024-02-21T05:10:35;171.52;;;72.45;;
31238;SDS011;17871;31.584;74.450;2024-02-21T05:13:04;147.27;;;62.45;;
31238;SDS011;17871;31.584;74.450;2024-02-21T05:15:33;130.75;;;59.53;;
31238;SDS011;17871;31.584;74.450;2024-02-21T05:18:02;135.93;;;65.45;;
31238;SDS011;17871;31.584;74.450;2024-02-21T05:20:31;137.43;;;61.17;;
31238;SDS011;17871;31.584;74.450;2024-02-21T05:23:00;160.23;;;72.38;;
31238;SDS011;17871;31.584;74.450;2024-02-21T05:25:29;132.60;;;60.90;;
31238;SDS011;17871;31.584;74.450;2024-02-21T05:27:58;165.55;;;65.03;;
31238;SDS011;17871;31.584;74.450;2024-02-21T05:30:30;147.35;;;62.20;;
31238;SDS011;17871;31.584;74.450;2024-02-21T05:33:03;148.90;;;63.53;;
31238;SDS011;17871;31.584;74.450;2024-02-21T05:35:33;160.27;;;69.60;;
31238;SDS011;17871;31.584;74.450;2024-02-21T05:38:02;159.32;;;70.90;;
31238;SDS011;17871;31.584;74.450;2024-02-21T05:40:39;154.18;;;73.55;;
31238;SDS011;17871;31.584;74.450;2024-02-21T05:43:09;156.45;;;75.57;;
31238;SDS011;17871;31.584;74.450;2024-02-21T05:45:38;152.55;;;73.05;;
31238;SDS011;17871;31.584;74.450;2024-02-21T05:48:09;167.82;;;73.47;;
31238;SDS011;17871;31.584;74.450;2024-02-21T05:50:38;130.10;;;65.32;;
31238;SDS011;17871;31.584;74.450;2024-02-21T05:53:10;147.83;;;63.67;;
31238;SDS011;17871;31.584;74.450;2024-02-21T05:55:40;134.45;;;60.17;;
31238;SDS011;17871;31.584;74.450;2024-02-21T05:58:09;127.20;;;59.63;;
31238;SDS011;17871;31.584;74.450;2024-02-21T06:00:42;125.40;;;58.47;;
31238;SDS011;17871;31.584;74.450;2024-02-21T06:03:11;117.10;;;54.53;;
31238;SDS011;17871;31.584;74.450;2024-02-21T06:05:40;95.72;;;44.15;;
31238;SDS011;17871;31.584;74.450;2024-02-21T06:08:08;86.53;;;43.63;;
31238;SDS011;17871;31.584;74.450;2024-02-21T06:10:38;96.63;;;44.13;;
31238;SDS011;17871;31.584;74.450;2024-02-21T06:13:07;88.75;;;43.55;;
31238;SDS011;17871;31.584;74.450;2024-02-21T06:15:36;84.63;;;41.17;;
31238;SDS011;17871;31.584;74.450;2024-02-21T06:18:05;97.15;;;46.58;;
31238;SDS011;17871;31.584;74.450;2024-02-21T06:20:34;102.68;;;41.55;;
31238;SDS011;17871;31.584;74.450;2024-02-21T06:23:05;82.38;;;37.63;;
31238;SDS011;17871;31.584;74.450;2024-02-21T06:25:34;91.80;;;38.00;;
31238;SDS011;17871;31.584;74.450;2024-02-21T06:28:03;75.05;;;36.35;;
31238;SDS011;17871;31.584;74.450;2024-02-21T06:30:32;84.07;;;32.75;;
31238;SDS011;17871;31.584;74.450;2024-02-21T06:33:01;41.00;;;20.75;;
31238;SDS011;17871;31.584;74.450;2024-02-21T06:35:31;70.32;;;23.98;;
31238;SDS011;17871;31.584;74.450;2024-02-21T06:38:00;65.22;;;30.60;;
31238;SDS011;17871;31.584;74.450;2024-02-21T06:40:30;76.43;;;32.05;;
31238;SDS011;17871;31.584;74.450;2024-02-21T06:43:07;69.07;;;31.60;;
31238;SDS011;17871;31.584;74.450;2024-02-21T06:45:36;46.03;;;24.63;;
31238;SDS011;17871;31.584;74.450;2024-02-21T06:48:05;53.45;;;25.02;;
31238;SDS011;17871;31.584;74.450;2024-02-21T06:50:34;68.95;;;29.02;;
31238;SDS011;17871;31.584;74.450;2024-02-21T06:53:03;67.75;;;29.20;;
31238;SDS011;17871;31.584;74.450;2024-02-21T06:55:32;58.30;;;30.15;;
31238;SDS011;17871;31.584;74.450;2024-02-21T06:58:01;55.70;;;25.40;;
31238;SDS011;17871;31.584;74.450;2024-02-21T07:00:30;50.58;;;23.92;;
31238;SDS011;17871;31.584;74.450;2024-02-21T07:02:59;52.38;;;26.17;;
31238;SDS011;17871;31.584;74.450;2024-02-21T07:05:28;56.80;;;25.40;;
31238;SDS011;17871;31.584;74.450;2024-02-21T07:07:58;52.92;;;23.15;;
31238;SDS011;17871;31.584;74.450;2024-02-21T07:10:27;56.80;;;23.58;;
31238;SDS011;17871;31.584;74.450;2024-02-21T07:12:57;41.60;;;21.23;;
31238;SDS011;17871;31.584;74.450;2024-02-21T07:15:26;49.22;;;23.90;;
31238;SDS011;17871;31.584;74.450;2024-02-21T07:17:57;52.20;;;24.75;;
31238;SDS011;17871;31.584;74.450;2024-02-21T07:20:26;54.03;;;24.88;;
31238;SDS011;17871;31.584;74.450;2024-02-21T07:22:55;58.22;;;25.15;;
31238;SDS011;17871;31.584;74.450;2024-02-21T07:25:24;57.63;;;22.58;;
31238;SDS011;17871;31.584;74.450;2024-02-21T07:27:53;58.10;;;27.27;;
31238;SDS011;17871;31.584;74.450;2024-02-21T07:30:22;41.10;;;21.48;;
31238;SDS011;17871;31.584;74.450;2024-02-21T07:32:51;41.25;;;21.15;;
31238;SDS011;17871;31.584;74.450;2024-02-21T07:35:20;53.42;;;23.60;;
31238;SDS011;17871;31.584;74.450;2024-02-21T07:37:50;36.45;;;18.83;;
31238;SDS011;17871;31.584;74.450;2024-02-21T07:40:18;44.15;;;20.02;;
31238;SDS011;17871;31.584;74.450;2024-02-21T07:42:48;55.80;;;19.65;;
31238;SDS011;17871;31.584;74.450;2024-02-21T07:45:18;46.90;;;19.98;;
31238;SDS011;17871;31.584;74.450;2024-02-21T07:47:52;45.03;;;22.15;;
31238;SDS011;17871;31.584;74.450;2024-02-21T07:50:21;62.33;;;24.05;;
31238;SDS011;17871;31.584;74.450;2024-02-21T07:52:50;54.15;;;22.08;;
31238;SDS011;17871;31.584;74.450;2024-02-21T07:55:19;48.53;;;23.42;;
31238;SDS011;17871;31.584;74.450;2024-02-21T07:57:48;43.17;;;20.83;;
31238;SDS011;17871;31.584;74.450;2024-02-21T08:00:18;37.60;;;19.08;;
31238;SDS011;17871;31.584;74.450;2024-02-21T08:02:51;44.67;;;19.85;;
31238;SDS011;17871;31.584;74.450;2024-02-21T08:05:20;41.47;;;18.75;;
31238;SDS011;17871;31.584;74.450;2024-02-21T08:07:49;40.50;;;19.38;;
31238;SDS011;17871;31.584;74.450;2024-02-21T08:10:21;47.90;;;19.95;;
31238;SDS011;17871;31.584;74.450;2024-02-21T08:12:50;34.10;;;17.70;;
31238;SDS011;17871;31.584;74.450;2024-02-21T08:15:19;45.63;;;18.85;;
31238;SDS011;17871;31.584;74.450;2024-02-21T08:17:53;45.22;;;18.10;;
31238;SDS011;17871;31.584;74.450;2024-02-21T08:20:21;54.45;;;18.20;;
31238;SDS011;17871;31.584;74.450;2024-02-21T08:22:51;41.35;;;20.05;;
31238;SDS011;17871;31.584;74.450;2024-02-21T08:25:20;36.17;;;17.45;;
31238;SDS011;17871;31.584;74.450;2024-02-21T08:27:49;37.00;;;19.23;;
31238;SDS011;17871;31.584;74.450;2024-02-21T08:30:20;39.60;;;17.73;;
31238;SDS011;17871;31.584;74.450;2024-02-21T08:32:48;45.40;;;18.25;;
31238;SDS011;17871;31.584;74.450;2024-02-21T08:35:18;39.08;;;16.88;;
31238;SDS011;17871;31.584;74.450;2024-02-21T08:37:53;38.50;;;16.17;;
31238;SDS011;17871;31.584;74.450;2024-02-21T08:40:22;41.47;;;15.85;;
31238;SDS011;17871;31.584;74.450;2024-02-21T08:42:51;38.97;;;16.40;;
31238;SDS011;17871;31.584;74.450;2024-02-21T08:45:20;40.58;;;16.48;;
31238;SDS011;17871;31.584;74.450;2024-02-21T08:47:49;33.85;;;15.13;;
31238;SDS011;17871;31.584;74.450;2024-02-21T08:50:18;33.08;;;11.20;;
31238;SDS011;17871;31.584;74.450;2024-02-21T08:52:55;29.38;;;13.93;;
31238;SDS011;17871;31.584;74.450;2024-02-21T08:55:24;27.17;;;13.88;;
31238;SDS011;17871;31.584;74.450;2024-02-21T08:57:54;33.00;;;12.80;;
31238;SDS011;17871;31.584;74.450;2024-02-21T09:00:23;29.15;;;11.50;;
31238;SDS011;17871;31.584;74.450;2024-02-21T09:02:56;36.53;;;12.15;;
31238;SDS011;17871;31.584;74.450;2024-02-21T09:05:24;27.90;;;12.55;;
31238;SDS011;17871;31.584;74.450;2024-02-21T09:07:54;27.20;;;13.48;;
31238;SDS011;17871;31.584;74.450;2024-02-21T09:10:23;24.50;;;12.05;;
31238;SDS011;17871;31.584;74.450;2024-02-21T09:12:52;38.20;;;12.93;;
31238;SDS011;17871;31.584;74.450;2024-02-21T09:15:21;36.72;;;14.70;;
31238;SDS011;17871;31.584;74.450;2024-02-21T09:17:50;23.60;;;12.60;;
31238;SDS011;17871;31.584;74.450;2024-02-21T09:20:19;20.35;;;10.52;;
31238;SDS011;17871;31.584;74.450;2024-02-21T09:22:48;21.02;;;10.98;;
31238;SDS011;17871;31.584;74.450;2024-02-21T09:25:18;27.27;;;11.75;;
31238;SDS011;17871;31.584;74.450;2024-02-21T09:27:48;32.40;;;13.32;;
31238;SDS011;17871;31.584;74.450;2024-02-21T09:30:16;25.90;;;12.27;;
31238;SDS011;17871;31.584;74.450;2024-02-21T09:32:46;21.55;;;10.88;;
31238;SDS011;17871;31.584;74.450;2024-02-21T09:35:16;26.45;;;8.88;;
31238;SDS011;17871;31.584;74.450;2024-02-21T09:37:45;28.60;;;10.27;;
31238;SDS011;17871;31.584;74.450;2024-02-21T09:40:15;26.52;;;10.95;;
31238;SDS011;17871;31.584;74.450;2024-02-21T09:42:46;25.25;;;10.43;;
31238;SDS011;17871;31.584;74.450;2024-02-21T09:45:23;38.75;;;12.88;;
31238;SDS011;17871;31.584;74.450;2024-02-21T09:50:28;28.70;;;10.77;;
31238;SDS011;17871;31.584;74.450;2024-02-21T09:52:58;25.70;;;10.85;;
31238;SDS011;17871;31.584;74.450;2024-02-21T09:55:27;22.95;;;9.73;;
31238;SDS011;17871;31.584;74.450;2024-02-21T09:57:58;31.27;;;10.15;;
31238;SDS011;17871;31.584;74.450;2024-02-21T10:00:28;41.13;;;10.13;;
31238;SDS011;17871;31.584;74.450;2024-02-21T10:02:58;25.67;;;11.05;;
31238;SDS011;17871;31.584;74.450;2024-02-21T10:05:27;29.27;;;12.13;;
31238;SDS011;17871;31.584;74.450;2024-02-21T10:07:56;22.75;;;12.10;;
31238;SDS011;17871;31.584;74.450;2024-02-21T10:10:28;29.55;;;10.80;;
31238;SDS011;17871;31.584;74.450;2024-02-21T10:12:58;22.20;;;10.57;;
31238;SDS011;17871;31.584;74.450;2024-02-21T10:15:27;28.08;;;11.55;;
31238;SDS011;17871;31.584;74.450;2024-02-21T10:18:00;34.72;;;11.00;;
31238;SDS011;17871;31.584;74.450;2024-02-21T10:20:32;31.23;;;13.38;;
31238;SDS011;17871;31.584;74.450;2024-02-21T10:23:03;26.85;;;11.23;;
31238;SDS011;17871;31.584;74.450;2024-02-21T10:25:36;37.95;;;13.25;;
31238;SDS011;17871;31.584;74.450;2024-02-21T10:28:14;24.98;;;9.68;;
31238;SDS011;17871;31.584;74.450;2024-02-21T10:30:51;20.05;;;9.30;;
31238;SDS011;17871;31.584;74.450;2024-02-21T10:33:20;21.50;;;8.43;;
31238;SDS011;17871;31.584;74.450;2024-02-21T10:35:50;17.35;;;8.63;;
31238;SDS011;17871;31.584;74.450;2024-02-21T10:38:19;28.88;;;11.52;;
31238;SDS011;17871;31.584;74.450;2024-02-21T10:40:48;24.95;;;12.70;;
31238;SDS011;17871;31.584;74.450;2024-02-21T10:43:21;22.17;;;9.57;;
31238;SDS011;17871;31.584;74.450;2024-02-21T10:45:50;20.65;;;9.30;;
31238;SDS011;17871;31.584;74.450;2024-02-21T10:48:22;20.98;;;10.70;;
31238;SDS011;17871;31.584;74.450;2024-02-21T10:56:06;22.73;;;9.55;;
31238;SDS011;17871;31.584;74.450;2024-02-21T10:58:41;25.70;;;9.50;;
31238;SDS011;17871;31.584;74.450;2024-02-21T11:01:10;21.83;;;10.15;;
31238;SDS011;17871;31.584;74.450;2024-02-21T11:03:44;26.63;;;11.63;;
31238;SDS011;17871;31.584;74.450;2024-02-21T11:06:14;25.98;;;11.23;;
31238;SDS011;17871;31.584;74.450;2024-02-21T11:08:44;19.70;;;11.02;;
31238;SDS011;17871;31.584;74.450;2024-02-21T11:11:13;25.80;;;10.77;;
31238;SDS011;17871;31.584;74.450;2024-02-21T11:14:18;20.15;;;9.95;;
31238;SDS011;17871;31.584;74.450;2024-02-21T11:16:47;20.55;;;9.52;;
31238;SDS011;17871;31.584;74.450;2024-02-21T11:19:21;20.60;;;9.43;;
31238;SDS011;17871;31.584;74.450;2024-02-21T11:21:51;30.52;;;12.82;;
31238;SDS011;17871;31.584;74.450;2024-02-21T11:24:30;27.05;;;13.05;;
31238;SDS011;17871;31.584;74.450;2024-02-21T11:27:12;34.67;;;12.00;;
31238;SDS011;17871;31.584;74.450;2024-02-21T11:29:45;14.17;;;7.70;;
31238;SDS011;17871;31.584;74.450;2024-02-21T11:32:16;16.55;;;8.80;;
31238;SDS011;17871;31.584;74.450;2024-02-21T11:34:57;21.95;;;9.85;;
31238;SDS011;17871;31.584;74.450;2024-02-21T11:37:35;20.63;;;8.90;;
31238;SDS011;17871;31.584;74.450;2024-02-21T11:40:08;13.77;;;8.18;;
31238;SDS011;17871;31.584;74.450;2024-02-21T11:42:39;22.58;;;9.48;;
31238;SDS011;17871;31.584;74.450;2024-02-21T11:45:08;22.42;;;10.43;;
31238;SDS011;17871;31.584;74.450;2024-02-21T11:47:38;19.80;;;10.25;;
31238;SDS011;17871;31.584;74.450;2024-02-21T11:50:10;18.40;;;8.68;;
31238;SDS011;17871;31.584;74.450;2024-02-21T11:52:41;18.23;;;9.87;;
31238;SDS011;17871;31.584;74.450;2024-02-21T11:55:10;17.63;;;9.05;;
31238;SDS011;17871;31.584;74.450;2024-02-21T11:57:39;23.42;;;10.82;;
31238;SDS011;17871;31.584;74.450;2024-02-21T12:02:40;35.38;;;13.02;;
31238;SDS011;17871;31.584;74.450;2024-02-21T12:05:09;28.33;;;11.55;;
31238;SDS011;17871;31.584;74.450;2024-02-21T12:07:39;22.30;;;11.05;;
31238;SDS011;17871;31.584;74.450;2024-02-21T12:10:12;26.77;;;11.05;;
31238;SDS011;17871;31.584;74.450;2024-02-21T12:12:41;25.50;;;11.20;;
31238;SDS011;17871;31.584;74.450;2024-02-21T12:15:10;36.95;;;11.13;;
31238;SDS011;17871;31.584;74.450;2024-02-21T12:17:40;36.20;;;12.82;;
31238;SDS011;17871;31.584;74.450;2024-02-21T12:20:09;32.92;;;12.25;;
31238;SDS011;17871;31.584;74.450;2024-02-21T12:22:42;33.50;;;13.70;;
31238;SDS011;17871;31.584;74.450;2024-02-21T12:25:19;45.08;;;15.40;;
31238;SDS011;17871;31.584;74.450;2024-02-21T12:27:48;51.80;;;16.55;;
31238;SDS011;17871;31.584;74.450;2024-02-21T12:30:18;53.45;;;19.25;;
31238;SDS011;17871;31.584;74.450;2024-02-21T12:32:47;36.80;;;17.58;;
31238;SDS011;17871;31.584;74.450;2024-02-21T12:35:17;46.08;;;19.20;;
31238;SDS011;17871;31.584;74.450;2024-02-21T12:37:47;72.03;;;23.20;;
31238;SDS011;17871;31.584;74.450;2024-02-21T12:40:16;49.45;;;21.33;;
31238;SDS011;17871;31.584;74.450;2024-02-21T12:42:45;40.78;;;18.67;;
31238;SDS011;17871;31.584;74.450;2024-02-21T12:45:15;50.13;;;23.70;;
31238;SDS011;17871;31.584;74.450;2024-02-21T12:47:44;52.28;;;21.25;;
31238;SDS011;17871;31.584;74.450;2024-02-21T12:50:15;45.35;;;17.85;;
31238;SDS011;17871;31.584;74.450;2024-02-21T12:52:44;58.60;;;24.33;;
31238;SDS011;17871;31.584;74.450;2024-02-21T12:55:13;64.20;;;27.17;;
31238;SDS011;17871;31.584;74.450;2024-02-21T12:57:43;72.13;;;24.25;;
31238;SDS011;17871;31.584;74.450;2024-02-21T13:00:12;72.90;;;25.95;;
31238;SDS011;17871;31.584;74.450;2024-02-21T13:02:42;71.22;;;24.58;;
31238;SDS011;17871;31.584;74.450;2024-02-21T13:05:11;65.70;;;24.80;;
31238;SDS011;17871;31.584;74.450;2024-02-21T13:07:40;59.20;;;26.60;;
31238;SDS011;17871;31.584;74.450;2024-02-21T13:10:09;67.20;;;26.05;;
31238;SDS011;17871;31.584;74.450;2024-02-21T13:12:38;55.95;;;25.15;;
31238;SDS011;17871;31.584;74.450;2024-02-21T13:15:07;75.72;;;28.50;;
31238;SDS011;17871;31.584;74.450;2024-02-21T13:17:40;55.38;;;24.70;;
31238;SDS011;17871;31.584;74.450;2024-02-21T13:20:09;73.90;;;29.52;;
31238;SDS011;17871;31.584;74.450;2024-02-21T13:22:39;65.05;;;27.90;;
31238;SDS011;17871;31.584;74.450;2024-02-21T13:25:08;70.30;;;28.92;;
31238;SDS011;17871;31.584;74.450;2024-02-21T13:27:37;84.25;;;34.40;;
31238;SDS011;17871;31.584;74.450;2024-02-21T13:30:06;82.72;;;33.70;;
31238;SDS011;17871;31.584;74.450;2024-02-21T13:32:37;81.40;;;34.15;;
31238;SDS011;17871;31.584;74.450;2024-02-21T13:35:06;95.63;;;37.72;;
31238;SDS011;17871;31.584;74.450;2024-02-21T13:37:36;124.35;;;51.63;;
31238;SDS011;17871;31.584;74.450;2024-02-21T13:40:05;115.15;;;39.88;;
31238;SDS011;17871;31.584;74.450;2024-02-21T13:42:35;105.32;;;39.17;;
31238;SDS011;17871;31.584;74.450;2024-02-21T13:45:04;94.00;;;36.10;;
31238;SDS011;17871;31.584;74.450;2024-02-21T13:47:36;90.72;;;37.75;;
31238;SDS011;17871;31.584;74.450;2024-02-21T13:50:07;101.18;;;38.50;;
31238;SDS011;17871;31.584;74.450;2024-02-21T13:52:40;92.57;;;33.05;;
31238;SDS011;17871;31.584;74.450;2024-02-21T13:55:09;75.35;;;34.00;;
31238;SDS011;17871;31.584;74.450;2024-02-21T13:57:38;64.28;;;27.63;;
31238;SDS011;17871;31.584;74.450;2024-02-21T14:00:07;52.00;;;23.40;;
31238;SDS011;17871;31.584;74.450;2024-02-21T14:02:39;46.53;;;22.38;;
31238;SDS011;17871;31.584;74.450;2024-02-21T14:05:08;42.33;;;20.55;;
31238;SDS011;17871;31.584;74.450;2024-02-21T14:07:38;61.92;;;27.63;;
31238;SDS011;17871;31.584;74.450;2024-02-21T14:10:07;54.50;;;23.60;;
31238;SDS011;17871;31.584;74.450;2024-02-21T14:12:38;60.25;;;22.92;;
31238;SDS011;17871;31.584;74.450;2024-02-21T14:15:07;60.20;;;25.40;;
31238;SDS011;17871;31.584;74.450;2024-02-21T14:17:37;53.08;;;26.15;;
31238;SDS011;17871;31.584;74.450;2024-02-21T14:20:07;71.28;;;28.15;;
31238;SDS011;17871;31.584;74.450;2024-02-21T14:22:38;71.78;;;27.67;;
31238;SDS011;17871;31.584;74.450;2024-02-21T14:25:08;57.30;;;29.92;;
31238;SDS011;17871;31.584;74.450;2024-02-21T14:27:37;73.05;;;33.90;;
31238;SDS011;17871;31.584;74.450;2024-02-21T14:30:06;99.90;;;33.42;;